createdAt,value
2019-03-03T00:00:36.855Z,979.34
2019-03-03T00:01:37.021Z,979.38
2019-03-03T00:02:36.700Z,979.29
2019-03-03T00:03:37.061Z,979.33
2019-03-03T00:04:36.647Z,979.26
2019-03-03T00:05:36.736Z,979.29
2019-03-03T00:06:36.541Z,979.31
2019-03-03T00:07:36.505Z,979.26
2019-03-03T00:08:36.463Z,979.22
2019-03-03T00:09:36.422Z,979.26
2019-03-03T00:10:36.398Z,979.27
2019-03-03T00:11:36.341Z,979.15
2019-03-03T00:12:36.300Z,979.25
2019-03-03T00:13:36.260Z,979.21
2019-03-03T00:14:36.221Z,979.21
2019-03-03T00:15:36.195Z,979.25
2019-03-03T00:16:36.144Z,979.29
2019-03-03T00:17:36.104Z,979.20
2019-03-03T00:18:36.087Z,979.18
2019-03-03T00:19:36.047Z,979.16
2019-03-03T00:20:35.990Z,979.19
2019-03-03T00:21:35.943Z,979.15
2019-03-03T00:22:35.923Z,979.13
2019-03-03T00:23:35.981Z,979.19
2019-03-03T00:24:35.881Z,979.17
2019-03-03T00:25:35.824Z,979.17
2019-03-03T00:26:36.806Z,979.21
2019-03-03T00:27:39.905Z,979.19
2019-03-03T00:28:35.945Z,979.20
2019-03-03T00:29:35.727Z,979.17
2019-03-03T00:30:37.625Z,979.17
2019-03-03T00:31:45.529Z,979.17
2019-03-03T00:32:43.568Z,979.11
2019-03-03T00:33:45.210Z,979.13
2019-03-03T00:34:48.092Z,979.09
2019-03-03T00:35:45.583Z,979.10
2019-03-03T00:36:39.174Z,979.04
2019-03-03T00:37:41.503Z,979.06
2019-03-03T00:38:46.832Z,979.03
2019-03-03T00:39:41.177Z,979.03
2019-03-03T00:40:42.090Z,979.09
2019-03-03T00:41:35.438Z,979.02
2019-03-03T00:42:35.163Z,979.09
2019-03-03T00:43:35.063Z,979.06
2019-03-03T00:44:35.061Z,979.03
2019-03-03T00:45:35.135Z,978.94
2019-03-03T00:46:34.952Z,978.98
2019-03-03T00:47:34.912Z,978.91
2019-03-03T00:48:35.061Z,978.88
2019-03-03T00:49:34.845Z,978.93
2019-03-03T00:50:34.993Z,978.91
2019-03-03T00:51:39.532Z,978.85
2019-03-03T00:52:43.003Z,978.86
2019-03-03T00:53:34.727Z,978.88
2019-03-03T00:54:34.660Z,978.90
2019-03-03T00:55:34.590Z,978.88
2019-03-03T00:56:34.547Z,978.89
2019-03-03T00:57:34.837Z,978.84
2019-03-03T00:58:34.463Z,978.87
2019-03-03T00:59:34.430Z,978.88
2019-03-03T01:00:34.390Z,978.89
2019-03-03T01:01:34.346Z,978.90
2019-03-03T01:02:34.400Z,978.85
2019-03-03T01:03:34.266Z,978.87
2019-03-03T01:04:34.234Z,978.85
2019-03-03T01:05:34.193Z,978.89
2019-03-03T01:06:34.242Z,978.93
2019-03-03T01:07:34.127Z,978.89
2019-03-03T03:44:20.922Z,977.37
2019-03-03T03:45:11.753Z,977.30
2019-03-03T03:46:11.719Z,977.33
2019-03-03T03:47:11.662Z,977.24
2019-03-03T03:48:11.616Z,977.27
2019-03-03T03:49:11.582Z,977.24
2019-03-03T03:50:11.535Z,977.21
2019-03-03T03:51:11.492Z,977.24
2019-03-03T03:52:11.470Z,977.24
2019-03-03T03:53:11.405Z,977.21
2019-03-03T03:54:11.367Z,977.20
2019-03-03T03:55:11.326Z,977.20
2019-03-03T03:56:11.278Z,977.25
2019-03-03T03:57:11.244Z,977.24
2019-03-03T03:58:11.201Z,977.26
2019-03-03T03:59:11.166Z,977.19
2019-03-03T04:00:11.113Z,977.19
2019-03-03T04:01:11.085Z,977.19
2019-03-03T04:02:11.042Z,977.11
2019-03-03T04:03:10.995Z,977.06
2019-03-03T04:04:10.965Z,977.04
2019-03-03T04:05:10.926Z,977.10
2019-03-03T04:06:10.884Z,977.00
2019-03-03T04:07:10.836Z,977.09
2019-03-03T04:08:10.789Z,977.04
2019-03-03T04:09:10.754Z,977.05
2019-03-03T04:10:10.714Z,976.99
2019-03-03T04:11:10.671Z,977.03
2019-03-03T04:12:10.631Z,977.01
2019-03-03T04:13:10.584Z,977.00
2019-03-03T04:14:10.585Z,977.05
2019-03-03T04:15:10.515Z,976.94
2019-03-03T04:16:10.471Z,976.92
2019-03-03T04:17:10.425Z,976.97
2019-03-03T04:18:10.389Z,976.96
2019-03-03T04:19:10.346Z,976.94
2019-03-03T04:20:10.304Z,976.81
2019-03-03T04:21:10.268Z,976.80
2019-03-03T04:22:10.228Z,976.83
2019-03-03T04:23:10.188Z,976.76
2019-03-03T04:24:10.149Z,976.75
2019-03-03T04:25:10.139Z,976.83
2019-03-03T04:26:10.072Z,976.78
2019-03-03T04:27:10.028Z,976.76
2019-03-03T04:28:09.992Z,976.77
2019-03-03T04:29:09.947Z,976.71
2019-03-03T04:30:09.905Z,976.71
2019-03-03T04:31:09.863Z,976.67
2019-03-03T04:32:09.826Z,976.67
2019-03-03T04:33:09.802Z,976.68
2019-03-03T04:34:09.745Z,976.73
2019-03-03T04:35:09.705Z,976.79
2019-03-03T04:36:09.666Z,976.75
2019-03-03T04:37:09.626Z,976.76
2019-03-03T04:38:09.585Z,976.77
2019-03-03T04:39:09.543Z,976.74
2019-03-03T04:40:09.502Z,976.65
2019-03-03T04:41:09.471Z,976.70
2019-03-03T04:42:09.431Z,976.63
2019-03-03T04:43:09.386Z,976.66
2019-03-03T04:44:09.350Z,976.59
2019-03-03T04:45:09.301Z,976.62
2019-03-03T04:46:09.264Z,976.54
2019-03-03T04:47:09.225Z,976.51
2019-03-03T04:48:09.212Z,976.59
2019-03-03T04:49:09.142Z,976.59
2019-03-03T04:50:09.104Z,976.50
2019-03-03T04:51:09.062Z,976.44
2019-03-03T04:52:09.023Z,976.42
2019-03-03T04:53:08.987Z,976.38
2019-03-03T04:54:08.946Z,976.41
2019-03-03T04:55:08.905Z,976.38
2019-03-03T04:56:08.866Z,976.28
2019-03-03T04:57:08.822Z,976.31
2019-03-03T04:58:08.788Z,976.24
2019-03-03T04:59:08.742Z,976.22
2019-03-03T05:00:08.761Z,976.26
2019-03-03T05:01:08.669Z,976.27
2019-03-03T05:02:08.635Z,976.17
2019-03-03T05:03:08.585Z,976.12
2019-03-03T05:04:08.542Z,976.30
2019-03-03T05:05:08.510Z,976.17
2019-03-03T05:06:08.467Z,976.20
2019-03-03T05:07:08.558Z,976.23
2019-03-03T05:08:08.398Z,976.23
2019-03-03T05:09:08.341Z,976.28
2019-03-03T05:10:08.306Z,976.24
2019-03-03T05:11:08.265Z,976.16
2019-03-03T05:12:08.223Z,976.19
2019-03-03T05:13:08.193Z,976.20
2019-03-03T05:14:08.150Z,976.21
2019-03-03T05:15:08.106Z,976.29
2019-03-03T05:16:08.070Z,976.21
2019-03-03T05:17:08.770Z,976.28
2019-03-03T05:18:07.985Z,976.24
2019-03-03T05:19:07.945Z,976.19
2019-03-03T05:20:07.916Z,976.28
2019-03-03T05:21:07.865Z,976.27
2019-03-03T05:22:07.826Z,976.16
2019-03-03T05:23:07.784Z,976.29
2019-03-03T05:24:07.742Z,976.25
2019-03-03T05:25:07.710Z,976.20
2019-03-03T05:26:07.670Z,976.25
2019-03-03T05:27:07.629Z,976.18
2019-03-03T05:28:07.589Z,976.14
2019-03-03T05:29:07.546Z,976.25
2019-03-03T05:30:07.509Z,976.12
2019-03-03T05:31:07.466Z,976.08
2019-03-03T05:32:07.426Z,976.17
2019-03-03T05:33:07.390Z,976.11
2019-03-03T05:34:07.351Z,976.00
2019-03-03T05:35:07.306Z,975.96
2019-03-03T05:36:07.263Z,975.87
2019-03-03T05:37:07.242Z,976.09
2019-03-03T05:38:07.195Z,976.05
2019-03-03T05:39:07.150Z,976.07
2019-03-03T05:40:07.110Z,976.17
2019-03-03T05:41:07.066Z,976.08
2019-03-03T05:42:07.029Z,976.04
2019-03-03T05:43:06.994Z,976.08
2019-03-03T05:44:06.948Z,976.00
2019-03-03T05:45:06.939Z,976.05
2019-03-03T05:46:06.869Z,976.06
2019-03-03T05:47:06.831Z,976.01
2019-03-03T05:48:06.789Z,976.02
2019-03-03T05:49:06.748Z,975.95
2019-03-03T05:50:06.705Z,975.95
2019-03-03T05:51:06.667Z,976.00
2019-03-03T05:52:06.633Z,975.91
2019-03-03T05:53:06.583Z,976.05
2019-03-03T05:54:06.546Z,975.98
2019-03-03T05:55:15.435Z,975.97
2019-03-03T05:57:00.344Z,976.08
2019-03-03T05:58:00.264Z,976.08
2019-03-03T05:59:00.004Z,976.03
2019-03-03T06:00:00.168Z,976.14
2019-03-03T06:00:59.698Z,976.08
2019-03-03T06:01:59.654Z,976.12
2019-03-03T06:02:59.636Z,976.10
2019-03-03T06:03:59.575Z,976.07
2019-03-03T06:04:59.530Z,976.04
2019-03-03T06:05:59.491Z,976.11
2019-03-03T06:06:59.459Z,976.08
2019-03-03T06:07:59.413Z,976.10
2019-03-03T06:08:59.378Z,976.26
2019-03-03T06:09:59.335Z,976.06
2019-03-03T06:10:59.295Z,976.16
2019-03-03T06:11:59.250Z,976.08
2019-03-03T06:12:59.213Z,976.08
2019-03-03T06:13:59.177Z,976.01
2019-03-03T06:14:59.138Z,976.13
2019-03-03T06:15:59.115Z,976.13
2019-03-03T06:16:59.051Z,976.01
2019-03-03T06:17:59.013Z,975.96
2019-03-03T06:18:58.970Z,976.01
2019-03-03T06:19:58.936Z,975.99
2019-03-03T06:20:58.897Z,975.99
2019-03-03T06:21:58.859Z,976.08
2019-03-03T06:22:58.813Z,976.00
2019-03-03T06:23:58.769Z,975.96
2019-03-03T06:24:58.731Z,975.96
2019-03-03T06:25:58.695Z,976.01
2019-03-03T06:26:58.655Z,976.00
2019-03-03T06:27:58.613Z,976.02
2019-03-03T06:28:58.576Z,976.05
2019-03-03T06:29:58.530Z,975.98
2019-03-03T06:30:58.495Z,976.01
2019-03-03T06:31:58.457Z,975.90
2019-03-03T06:32:58.414Z,975.83
2019-03-03T06:33:58.380Z,975.89
2019-03-03T06:34:58.346Z,975.89
2019-03-03T06:35:58.291Z,975.88
2019-03-03T06:36:58.249Z,975.92
2019-03-03T06:37:58.219Z,975.96
2019-03-03T06:38:58.174Z,975.97
2019-03-03T06:39:58.133Z,975.93
2019-03-03T06:40:58.106Z,975.90
2019-03-03T06:41:58.056Z,975.92
2019-03-03T06:42:58.020Z,975.93
2019-03-03T06:43:57.974Z,976.06
2019-03-03T06:44:57.930Z,975.83
2019-03-03T06:45:57.898Z,975.93
2019-03-03T06:46:57.855Z,976.06
2019-03-03T06:47:57.815Z,975.92
2019-03-03T06:48:57.774Z,975.89
2019-03-03T06:49:57.733Z,975.90
2019-03-03T06:50:57.749Z,975.74
2019-03-03T06:51:57.654Z,975.88
2019-03-03T06:52:57.617Z,975.88
2019-03-03T06:53:57.574Z,975.84
2019-03-03T06:54:57.541Z,975.88
2019-03-03T06:55:57.492Z,975.82
2019-03-03T06:56:57.453Z,975.79
2019-03-03T06:57:57.412Z,975.81
2019-03-03T06:58:57.372Z,975.80
2019-03-03T06:59:57.341Z,975.85
2019-03-03T07:00:57.296Z,975.80
2019-03-03T07:01:57.257Z,975.84
2019-03-03T07:02:57.211Z,975.88
2019-03-03T07:03:57.183Z,975.80
2019-03-03T07:04:57.143Z,975.81
2019-03-03T07:05:57.096Z,975.77
2019-03-03T07:06:57.062Z,975.79
2019-03-03T07:07:57.014Z,975.90
2019-03-03T07:08:56.974Z,975.89
2019-03-03T07:09:56.934Z,975.92
2019-03-03T07:10:56.894Z,975.86
2019-03-03T07:11:56.860Z,975.81
2019-03-03T07:12:56.817Z,975.78
2019-03-03T07:13:56.779Z,975.72
2019-03-03T07:14:56.743Z,975.85
2019-03-03T07:15:56.696Z,975.94
2019-03-03T07:16:56.655Z,975.78
2019-03-03T07:17:56.642Z,975.81
2019-03-03T07:18:56.582Z,975.77
2019-03-03T07:19:56.538Z,975.83
2019-03-03T07:20:56.500Z,975.68
2019-03-03T07:21:56.456Z,975.70
2019-03-03T07:22:56.438Z,975.70
2019-03-03T07:23:56.381Z,975.67
2019-03-03T07:24:56.341Z,975.72
2019-03-03T07:25:56.303Z,975.72
2019-03-03T07:26:56.264Z,975.72
2019-03-03T07:27:56.220Z,975.87
2019-03-03T07:28:56.180Z,975.93
2019-03-03T07:29:56.143Z,975.84
2019-03-03T07:30:56.099Z,975.79
2019-03-03T07:31:56.064Z,975.89
2019-03-03T07:32:56.024Z,975.92
2019-03-03T07:33:55.998Z,975.83
2019-03-03T07:34:55.939Z,976.00
2019-03-03T07:35:55.910Z,976.03
2019-03-03T07:36:55.865Z,976.00
2019-03-03T07:37:55.826Z,976.04
2019-03-03T07:38:55.789Z,976.12
2019-03-03T07:39:55.747Z,976.05
2019-03-03T07:40:55.705Z,976.08
2019-03-03T07:41:55.666Z,976.02
2019-03-03T07:42:55.626Z,976.06
2019-03-03T07:43:55.590Z,976.02
2019-03-03T07:44:55.551Z,976.04
2019-03-03T07:45:55.508Z,975.85
2019-03-03T07:46:55.474Z,975.92
2019-03-03T07:47:55.430Z,976.13
2019-03-03T07:48:55.399Z,976.01
2019-03-03T07:49:55.354Z,976.11
2019-03-03T07:50:55.317Z,976.11
2019-03-03T07:51:55.272Z,976.19
2019-03-03T07:52:55.279Z,976.05
2019-03-03T07:53:55.191Z,976.13
2019-03-03T07:54:55.151Z,976.18
2019-03-03T07:55:55.119Z,976.26
2019-03-03T07:56:55.111Z,976.19
2019-03-03T07:57:55.035Z,976.25
2019-03-03T07:58:55.001Z,976.24
2019-03-03T07:59:54.953Z,976.19
2019-03-03T08:00:54.940Z,976.22
2019-03-03T08:01:54.876Z,976.26
2019-03-03T08:02:54.837Z,976.28
2019-03-03T08:03:54.804Z,976.14
2019-03-03T08:04:54.760Z,976.20
2019-03-03T08:05:54.721Z,976.19
2019-03-03T08:06:54.677Z,976.22
2019-03-03T08:07:54.642Z,976.30
2019-03-03T08:08:54.606Z,976.27
2019-03-03T08:09:54.562Z,976.23
2019-03-03T08:10:54.526Z,976.14
2019-03-03T08:11:54.485Z,976.31
2019-03-03T08:12:54.450Z,976.28
2019-03-03T08:13:54.403Z,976.21
2019-03-03T08:14:54.362Z,976.31
2019-03-03T08:15:54.331Z,976.26
2019-03-03T08:16:56.936Z,976.28
2019-03-03T08:19:07.679Z,976.23
2019-03-03T08:20:02.871Z,976.29
2019-03-03T08:21:03.432Z,976.20
2019-03-03T08:21:59.108Z,976.26
2019-03-03T08:22:54.059Z,976.25
2019-03-03T08:23:59.130Z,976.28
2019-03-03T08:25:05.869Z,976.26
2019-03-03T08:26:07.119Z,976.28
2019-03-03T08:27:05.265Z,976.27
2019-03-03T08:29:07.256Z,976.31
2019-03-03T08:30:58.798Z,976.29
2019-03-03T08:33:54.916Z,976.39
2019-03-03T08:36:14.672Z,976.28
2019-03-03T08:40:04.189Z,976.25
2019-03-03T08:41:03.415Z,976.13
2019-03-03T08:42:07.441Z,976.38
2019-03-03T08:43:04.795Z,976.22
2019-03-03T08:44:05.685Z,976.21
2019-03-03T08:45:04.753Z,976.17
2019-03-03T08:46:00.618Z,976.08
2019-03-03T08:52:05.328Z,976.23
2019-03-03T08:53:02.214Z,976.18
2019-03-03T08:54:02.244Z,976.16
2019-03-03T08:54:53.935Z,976.22
2019-03-03T08:57:12.208Z,976.16
2019-03-03T08:58:04.062Z,976.14
2019-03-03T08:59:04.199Z,976.11
2019-03-03T09:00:04.656Z,976.08
2019-03-03T09:01:06.297Z,976.11
2019-03-03T09:02:03.170Z,976.05
2019-03-03T09:03:01.933Z,976.16
2019-03-03T09:04:01.600Z,976.12
2019-03-03T09:04:58.777Z,976.16
2019-03-03T09:06:00.500Z,976.15
2019-03-03T09:06:56.488Z,976.19
2019-03-03T09:07:59.548Z,976.06
2019-03-03T09:09:02.380Z,976.26
2019-03-03T09:10:00.928Z,976.20
2019-03-03T09:11:01.971Z,976.21
2019-03-03T09:11:58.575Z,976.10
2019-03-03T09:13:01.014Z,976.13
2019-03-03T09:14:00.965Z,976.06
2019-03-03T09:14:59.556Z,976.06
2019-03-03T09:16:01.548Z,976.09
2019-03-03T09:17:01.224Z,976.15
2019-03-03T09:17:57.964Z,976.14
2019-03-03T09:18:58.766Z,976.10
2019-03-03T09:19:59.526Z,976.21
2019-03-03T09:20:58.821Z,976.22
2019-03-03T09:21:56.067Z,976.15
2019-03-03T09:23:00.574Z,976.16
2019-03-03T09:23:55.458Z,976.08
2019-03-03T09:24:56.278Z,976.09
2019-03-03T09:25:55.247Z,976.32
2019-03-03T09:26:57.057Z,976.15
2019-03-03T09:27:57.963Z,976.16
2019-03-03T09:29:03.428Z,976.13
2019-03-03T09:29:51.466Z,976.22
2019-03-03T09:30:51.439Z,976.25
2019-03-03T09:31:51.390Z,976.30
2019-03-03T09:32:51.372Z,976.20
2019-03-03T09:33:51.306Z,976.23
2019-03-03T09:34:51.273Z,976.24
2019-03-03T09:35:51.524Z,976.23
2019-03-03T09:36:51.300Z,976.28
2019-03-03T09:37:51.161Z,976.26
2019-03-03T09:38:51.115Z,976.25
2019-03-03T09:39:51.079Z,976.17
2019-03-03T09:40:51.308Z,976.19
2019-03-03T09:41:51.591Z,976.21
2019-03-03T09:42:51.175Z,976.05
2019-03-03T09:57:29.274Z,976.02
2019-03-03T09:58:29.194Z,976.13
2019-03-03T09:59:29.146Z,976.12
2019-03-03T10:00:29.115Z,976.00
2019-03-03T10:01:29.086Z,976.11
2019-03-03T10:02:29.753Z,976.12
2019-03-03T10:03:33.317Z,976.03
2019-03-03T10:04:29.049Z,976.06
2019-03-03T10:05:28.905Z,975.99
2019-03-03T10:06:28.937Z,976.01
2019-03-03T10:07:28.972Z,976.10
2019-03-03T10:08:29.772Z,976.05
2019-03-03T10:09:28.742Z,976.00
2019-03-03T10:10:29.083Z,975.84
2019-03-03T10:11:28.800Z,975.85
2019-03-03T10:12:29.114Z,975.91
2019-03-03T10:13:28.599Z,975.85
2019-03-03T10:14:28.645Z,975.83
2019-03-03T10:15:28.902Z,975.96
2019-03-03T10:16:28.691Z,975.99
2019-03-03T10:17:28.426Z,975.95
2019-03-03T10:18:29.827Z,975.95
2019-03-03T10:19:28.644Z,975.90
2019-03-03T10:20:29.452Z,975.85
2019-03-03T10:21:28.271Z,975.85
2019-03-03T10:22:28.294Z,975.84
2019-03-03T10:23:28.286Z,975.80
2019-03-03T10:24:28.325Z,975.85
2019-03-03T10:25:28.117Z,975.88
2019-03-03T10:26:28.070Z,975.83
2019-03-03T10:27:28.101Z,975.79
2019-03-03T10:28:28.028Z,975.78
2019-03-03T10:29:28.038Z,975.87
2019-03-03T10:30:29.311Z,975.85
2019-03-03T10:31:27.873Z,975.78
2019-03-03T10:32:27.860Z,975.79
2019-03-03T10:33:27.797Z,975.80
2019-03-03T10:34:28.193Z,975.84
2019-03-03T10:35:27.839Z,975.80
2019-03-03T10:36:28.244Z,975.78
2019-03-03T10:37:27.811Z,975.84
2019-03-03T10:38:35.925Z,975.87
2019-03-03T10:39:30.252Z,975.85
2019-03-03T10:40:27.574Z,975.87
2019-03-03T10:41:27.660Z,975.88
2019-03-03T10:42:32.328Z,975.86
2019-03-03T10:43:32.140Z,975.87
2019-03-03T10:44:27.368Z,975.90
2019-03-03T10:45:27.337Z,975.93
2019-03-03T10:46:27.302Z,975.97
2019-03-03T10:47:27.255Z,975.95
2019-03-03T10:48:27.219Z,976.00
2019-03-03T10:49:27.466Z,976.06
2019-03-03T10:50:27.172Z,975.97
2019-03-03T10:51:27.102Z,975.98
2019-03-03T10:52:27.081Z,976.02
2019-03-03T10:53:27.031Z,975.97
2019-03-03T10:54:26.989Z,975.92
2019-03-03T10:55:27.248Z,975.82
2019-03-03T10:56:26.917Z,976.03
2019-03-03T10:57:26.875Z,976.03
2019-03-03T10:58:26.831Z,975.99
2019-03-03T10:59:26.793Z,976.05
2019-03-03T11:00:26.757Z,976.04
2019-03-03T11:01:26.719Z,976.00
2019-03-03T11:02:26.683Z,976.05
2019-03-03T11:03:26.641Z,976.01
2019-03-03T11:04:26.599Z,976.02
2019-03-03T11:05:26.558Z,975.95
2019-03-03T11:06:26.887Z,976.13
2019-03-03T11:07:26.487Z,975.97
2019-03-03T11:08:26.452Z,976.16
2019-03-03T11:09:26.414Z,976.05
2019-03-03T11:10:26.368Z,975.98
2019-03-03T11:11:26.331Z,976.08
2019-03-03T11:12:26.295Z,976.00
2019-03-03T11:13:26.259Z,975.98
2019-03-03T11:14:26.220Z,975.92
2019-03-03T11:15:26.181Z,975.89
2019-03-03T11:16:26.138Z,975.93
2019-03-03T11:17:26.096Z,975.96
2019-03-03T11:18:26.098Z,975.73
2019-03-03T11:19:26.029Z,975.74
2019-03-03T11:20:25.989Z,975.82
2019-03-03T11:21:25.962Z,975.82
2019-03-03T11:22:25.914Z,975.82
2019-03-03T11:23:25.884Z,975.81
2019-03-03T11:24:25.842Z,975.82
2019-03-03T11:25:25.802Z,975.85
2019-03-03T11:26:25.774Z,975.74
2019-03-03T11:27:25.721Z,975.69
2019-03-03T11:28:25.683Z,975.66
2019-03-03T11:29:25.645Z,975.59
2019-03-03T11:30:25.603Z,975.61
2019-03-03T11:31:25.566Z,975.52
2019-03-03T11:32:25.531Z,975.52
2019-03-03T11:33:25.497Z,975.46
2019-03-03T11:34:25.538Z,975.48
2019-03-03T11:35:25.417Z,975.50
2019-03-03T11:36:25.432Z,975.38
2019-03-03T11:37:25.335Z,975.38
2019-03-03T11:38:25.299Z,975.28
2019-03-03T11:39:25.262Z,975.31
2019-03-03T11:40:25.226Z,975.26
2019-03-03T11:41:25.189Z,975.28
2019-03-03T11:42:25.147Z,975.29
2019-03-03T11:43:25.110Z,975.28
2019-03-03T11:44:25.083Z,975.20
2019-03-03T11:45:25.037Z,975.25
2019-03-03T11:46:25.000Z,975.30
2019-03-03T11:47:24.966Z,975.31
2019-03-03T11:48:24.921Z,975.34
2019-03-03T11:49:24.890Z,975.31
2019-03-03T11:50:24.842Z,975.29
2019-03-03T11:51:24.808Z,975.35
2019-03-03T11:52:24.775Z,975.25
2019-03-03T11:53:24.735Z,975.31
2019-03-03T11:54:24.695Z,975.31
2019-03-03T11:55:24.654Z,975.24
2019-03-03T11:56:24.619Z,975.26
2019-03-03T11:57:24.579Z,975.29
2019-03-03T11:58:24.544Z,975.33
2019-03-03T11:59:24.526Z,975.21
2019-03-03T12:00:24.464Z,975.23
2019-03-03T12:01:24.427Z,975.23
2019-03-03T12:02:24.392Z,975.13
2019-03-03T12:03:24.358Z,975.11
2019-03-03T12:04:24.316Z,975.09
2019-03-03T12:05:24.279Z,975.18
2019-03-03T12:06:24.244Z,975.16
2019-03-03T12:07:24.205Z,975.27
2019-03-03T12:08:24.167Z,975.07
2019-03-03T12:09:24.127Z,975.13
2019-03-03T12:10:24.085Z,975.03
2019-03-03T12:11:24.051Z,974.95
2019-03-03T12:12:24.013Z,974.97
2019-03-03T12:13:23.979Z,975.07
2019-03-03T12:14:23.937Z,975.05
2019-03-03T12:15:23.900Z,974.96
2019-03-03T12:16:23.865Z,975.06
2019-03-03T12:17:23.828Z,974.87
2019-03-03T12:18:24.774Z,975.05
2019-03-03T12:19:23.753Z,975.00
2019-03-03T12:20:23.717Z,975.01
2019-03-03T12:21:23.671Z,974.95
2019-03-03T12:22:23.634Z,975.03
2019-03-03T12:23:23.597Z,974.90
2019-03-03T12:24:23.561Z,974.89
2019-03-03T12:25:23.527Z,974.87
2019-03-03T12:26:23.488Z,974.98
2019-03-03T12:27:23.454Z,974.77
2019-03-03T12:28:23.416Z,974.91
2019-03-03T12:29:23.368Z,974.92
2019-03-03T12:30:23.337Z,974.90
2019-03-03T12:31:23.314Z,974.89
2019-03-03T12:32:23.256Z,974.95
2019-03-03T12:33:23.219Z,974.92
2019-03-03T12:34:23.180Z,975.03
2019-03-03T12:35:23.151Z,975.11
2019-03-03T12:36:23.109Z,974.89
2019-03-03T12:37:23.072Z,974.99
2019-03-03T12:38:23.035Z,974.93
2019-03-03T12:39:22.991Z,974.93
2019-03-03T12:40:22.956Z,974.78
2019-03-03T12:41:22.916Z,974.84
2019-03-03T12:42:22.883Z,974.79
2019-03-03T12:43:22.842Z,974.75
2019-03-03T12:44:22.803Z,974.85
2019-03-03T12:45:22.770Z,974.84
2019-03-03T12:46:22.726Z,974.82
2019-03-03T12:47:23.395Z,974.79
2019-03-03T12:48:22.662Z,974.73
2019-03-03T12:49:22.617Z,974.71
2019-03-03T12:50:22.584Z,974.72
2019-03-03T12:51:22.564Z,974.72
2019-03-03T12:52:22.510Z,974.62
2019-03-03T12:53:22.464Z,974.60
2019-03-03T12:54:22.432Z,974.72
2019-03-03T12:55:22.392Z,974.67
2019-03-03T12:56:22.353Z,974.66
2019-03-03T12:57:22.317Z,974.62
2019-03-03T12:58:22.279Z,974.55
2019-03-03T12:59:22.244Z,974.58
2019-03-03T13:00:22.203Z,974.55
2019-03-03T13:01:23.744Z,974.45
2019-03-03T13:02:22.128Z,974.50
2019-03-03T13:03:22.087Z,974.63
2019-03-03T13:04:22.076Z,974.55
2019-03-03T13:05:22.013Z,974.47
2019-03-03T13:06:24.490Z,974.61
2019-03-03T13:07:21.938Z,974.60
2019-03-03T13:08:21.967Z,974.60
2019-03-03T13:09:21.864Z,974.49
2019-03-03T13:10:21.828Z,974.50
2019-03-03T13:11:21.789Z,974.41
2019-03-03T13:12:21.748Z,974.43
2019-03-03T13:13:21.712Z,974.38
2019-03-03T13:14:21.671Z,974.33
2019-03-03T13:15:21.649Z,974.39
2019-03-03T13:16:21.637Z,974.35
2019-03-03T13:17:21.567Z,974.29
2019-03-03T13:18:21.522Z,974.38
2019-03-03T13:19:21.489Z,974.40
2019-03-03T13:20:21.456Z,974.35
2019-03-03T13:21:21.417Z,974.25
2019-03-03T13:22:21.393Z,974.28
2019-03-03T13:23:21.338Z,974.21
2019-03-03T13:24:21.298Z,974.18
2019-03-03T13:25:21.260Z,974.14
2019-03-03T13:26:21.238Z,974.14
2019-03-03T13:27:21.186Z,974.11
2019-03-03T13:28:21.311Z,974.14
2019-03-03T13:29:21.115Z,974.17
2019-03-03T13:30:21.079Z,974.21
2019-03-03T13:31:21.037Z,974.11
2019-03-03T13:32:20.999Z,974.20
2019-03-03T13:33:20.958Z,974.10
2019-03-03T13:34:20.925Z,974.20
2019-03-03T13:35:20.889Z,974.24
2019-03-03T13:36:20.849Z,974.08
2019-03-03T13:37:20.806Z,974.15
2019-03-03T13:38:20.771Z,974.22
2019-03-03T13:39:20.733Z,974.16
2019-03-03T13:40:20.698Z,974.13
2019-03-03T13:41:20.665Z,974.17
2019-03-03T13:42:20.645Z,974.04
2019-03-03T13:43:20.583Z,974.10
2019-03-03T13:44:20.549Z,974.04
2019-03-03T13:45:20.510Z,974.10
2019-03-03T13:46:20.467Z,974.03
2019-03-03T13:47:20.430Z,974.13
2019-03-03T13:48:20.397Z,974.15
2019-03-03T13:49:20.360Z,974.02
2019-03-03T13:50:20.318Z,974.08
2019-03-03T13:51:20.279Z,974.01
2019-03-03T13:52:20.251Z,974.07
2019-03-03T13:53:20.230Z,974.06
2019-03-03T13:54:20.196Z,974.09
2019-03-03T13:55:20.131Z,974.01
2019-03-03T13:56:20.097Z,973.96
2019-03-03T13:57:20.053Z,974.00
2019-03-03T13:58:20.023Z,973.95
2019-03-03T13:59:19.980Z,973.99
2019-03-03T14:00:19.950Z,974.03
2019-03-03T14:01:19.906Z,973.99
2019-03-03T14:02:19.869Z,974.02
2019-03-03T14:03:19.838Z,973.95
2019-03-03T14:04:19.787Z,974.02
2019-03-03T14:05:19.753Z,974.00
2019-03-03T14:06:19.747Z,973.90
2019-03-03T14:07:19.681Z,973.96
2019-03-03T14:08:19.656Z,974.03
2019-03-03T14:09:19.603Z,974.00
2019-03-03T14:10:19.564Z,973.96
2019-03-03T14:11:19.578Z,973.94
2019-03-03T14:12:19.492Z,974.04
2019-03-03T14:13:19.452Z,974.05
2019-03-03T14:14:19.415Z,974.00
2019-03-03T14:15:19.382Z,974.06
2019-03-03T14:16:19.334Z,973.97
2019-03-03T14:17:19.299Z,973.87
2019-03-03T14:18:19.262Z,973.90
2019-03-03T14:19:19.223Z,973.93
2019-03-03T14:20:19.189Z,973.87
2019-03-03T14:21:19.154Z,973.91
2019-03-03T14:22:19.110Z,973.83
2019-03-03T14:23:19.074Z,973.85
2019-03-03T14:24:19.065Z,973.88
2019-03-03T14:25:18.999Z,973.86
2019-03-03T14:26:18.964Z,973.79
2019-03-03T14:27:18.928Z,973.82
2019-03-03T14:28:18.881Z,973.76
2019-03-03T14:29:18.848Z,973.69
2019-03-03T14:30:18.810Z,973.66
2019-03-03T14:31:18.767Z,973.68
2019-03-03T14:32:18.735Z,973.67
2019-03-03T14:33:18.698Z,973.74
2019-03-03T14:34:18.665Z,973.71
2019-03-03T14:35:18.640Z,973.63
2019-03-03T14:36:18.648Z,973.68
2019-03-03T14:37:18.544Z,973.73
2019-03-03T14:38:18.528Z,973.70
2019-03-03T14:39:18.481Z,973.69
2019-03-03T14:40:18.427Z,973.60
2019-03-03T14:41:18.389Z,973.61
2019-03-03T14:42:18.353Z,973.70
2019-03-03T14:43:18.313Z,973.71
2019-03-03T14:44:18.281Z,973.69
2019-03-03T14:45:18.245Z,973.64
2019-03-03T14:46:18.205Z,973.61
2019-03-03T14:47:18.168Z,973.56
2019-03-03T14:48:18.126Z,973.51
2019-03-03T14:49:18.089Z,973.48
2019-03-03T14:50:18.052Z,973.50
2019-03-03T14:51:18.011Z,973.55
2019-03-03T14:52:17.997Z,973.49
2019-03-03T14:53:17.939Z,973.49
2019-03-03T14:54:17.902Z,973.51
2019-03-03T14:55:17.858Z,973.44
2019-03-03T14:56:17.826Z,973.42
2019-03-03T14:57:17.788Z,973.47
2019-03-03T14:58:17.761Z,973.45
2019-03-03T14:59:17.711Z,973.50
2019-03-03T15:00:17.667Z,973.53
2019-03-03T15:01:17.634Z,973.52
2019-03-03T15:02:17.597Z,973.51
2019-03-03T15:03:17.558Z,973.46
2019-03-03T15:04:17.522Z,973.34
2019-03-03T15:05:17.485Z,973.39
2019-03-03T15:06:24.211Z,973.33
2019-03-03T15:07:17.410Z,973.29
2019-03-03T15:08:17.362Z,973.30
2019-03-03T15:09:17.331Z,973.32
2019-03-03T15:10:17.291Z,973.32
2019-03-03T15:11:17.253Z,973.29
2019-03-03T15:12:17.210Z,973.39
2019-03-03T15:13:17.187Z,973.41
2019-03-03T15:14:17.160Z,973.31
2019-03-03T15:15:17.095Z,973.21
2019-03-03T15:16:17.092Z,973.26
2019-03-03T15:17:17.023Z,973.21
2019-03-03T15:18:16.990Z,973.20
2019-03-03T15:19:16.949Z,973.12
2019-03-03T15:20:16.924Z,973.07
2019-03-03T15:21:24.696Z,973.05
2019-03-03T15:22:16.838Z,972.97
2019-03-03T15:23:16.841Z,973.03
2019-03-03T15:24:16.793Z,972.99
2019-03-03T15:25:16.724Z,972.94
2019-03-03T15:26:16.686Z,972.99
2019-03-03T15:27:16.670Z,973.02
2019-03-03T15:28:16.609Z,973.00
2019-03-03T15:29:16.580Z,973.01
2019-03-03T15:41:59.809Z,972.51
2019-03-03T15:42:59.740Z,972.48
2019-03-03T15:43:59.687Z,972.45
2019-03-03T15:44:59.647Z,972.34